createdAt,value
2022-11-05T00:01:08.166Z,10.66
2022-11-05T00:03:48.278Z,10.63
2022-11-05T00:06:29.200Z,10.68
2022-11-05T00:09:09.022Z,10.71
2022-11-05T00:11:49.370Z,10.62
2022-11-05T00:14:29.684Z,10.62
2022-11-05T00:16:51.167Z,10.61
2022-11-05T00:19:13.539Z,10.63
2022-11-05T00:21:56.067Z,10.63
2022-11-05T00:24:36.460Z,10.59
2022-11-05T00:26:57.930Z,10.52
2022-11-05T00:29:19.397Z,10.58
2022-11-05T00:31:40.853Z,10.61
2022-11-05T00:34:02.341Z,10.67
2022-11-05T00:36:23.847Z,10.66
2022-11-05T00:38:45.374Z,10.53
2022-11-05T00:41:06.862Z,10.61
2022-11-05T00:43:47.247Z,10.65
2022-11-05T00:46:09.026Z,10.68
2022-11-05T00:48:49.199Z,10.70
2022-11-05T00:51:10.657Z,10.69
2022-11-05T00:53:32.660Z,10.59
2022-11-05T00:55:54.633Z,10.68
2022-11-05T00:58:21.373Z,10.68
2022-11-05T01:00:48.008Z,10.70
2022-11-05T01:03:13.731Z,10.71
2022-11-05T01:05:40.478Z,10.47
2022-11-05T01:08:02.132Z,10.57
2022-11-05T01:10:24.338Z,10.63
2022-11-05T01:12:45.820Z,10.66
2022-11-05T01:15:07.875Z,10.62
2022-11-05T01:17:29.366Z,10.69
2022-11-05T01:19:51.236Z,10.74
2022-11-05T01:22:12.843Z,10.74
2022-11-05T01:24:34.402Z,10.77
2022-11-05T01:26:55.980Z,10.79
2022-11-05T01:29:17.606Z,10.84
2022-11-05T01:31:39.076Z,10.84
2022-11-05T01:34:01.426Z,10.86
2022-11-05T01:36:22.979Z,10.82
2022-11-05T01:38:44.742Z,10.83
2022-11-05T01:41:06.746Z,10.82
2022-11-05T01:43:57.491Z,10.85
2022-11-05T01:46:23.736Z,10.87
2022-11-05T01:48:48.842Z,10.84
2022-11-05T01:51:16.175Z,10.84
2022-11-05T01:53:40.451Z,10.81
2022-11-05T01:56:14.579Z,10.83
2022-11-05T01:58:53.170Z,10.80
2022-11-05T02:01:15.759Z,10.77
2022-11-05T02:03:37.495Z,10.78
2022-11-05T02:06:02.555Z,10.77
2022-11-05T02:08:48.937Z,10.69
2022-11-05T02:11:14.184Z,10.75
2022-11-05T02:13:36.248Z,10.74
2022-11-05T02:16:24.071Z,10.74
2022-11-05T02:18:51.845Z,10.79
2022-11-05T02:22:01.590Z,10.73
2022-11-05T02:24:45.758Z,10.68
2022-11-05T02:27:27.458Z,10.57
2022-11-05T02:30:05.543Z,10.53
2022-11-05T02:32:32.792Z,10.39
2022-11-05T02:35:20.084Z,10.43
2022-11-05T02:37:53.194Z,10.39
2022-11-05T02:40:27.246Z,10.21
2022-11-05T02:43:16.541Z,10.25
2022-11-05T02:45:51.600Z,10.19
2022-11-05T02:48:40.426Z,10.20
2022-11-05T02:51:55.382Z,9.99
2022-11-05T02:54:24.143Z,9.84
2022-11-05T02:56:50.051Z,9.90
2022-11-05T02:59:11.779Z,9.84
2022-11-05T03:01:35.695Z,9.74
2022-11-05T03:04:00.821Z,9.73
2022-11-05T03:06:34.311Z,9.68
2022-11-05T03:09:33.333Z,9.72
2022-11-05T03:11:55.002Z,9.65
2022-11-05T03:14:24.028Z,9.38
2022-11-05T03:16:55.563Z,9.30
2022-11-05T03:19:41.802Z,9.40
2022-11-05T03:22:11.967Z,9.41
2022-11-05T03:24:36.712Z,9.47
2022-11-05T03:27:05.167Z,9.33
2022-11-05T03:29:33.585Z,9.40
2022-11-05T03:31:57.534Z,9.43
2022-11-05T03:34:26.098Z,9.52
2022-11-05T03:36:53.598Z,9.56
2022-11-05T03:39:21.721Z,9.52
2022-11-05T03:41:47.403Z,9.48
2022-11-05T03:44:13.187Z,9.55
2022-11-05T03:46:41.361Z,9.44
2022-11-05T03:49:06.291Z,9.54
2022-11-05T03:51:52.787Z,9.67
2022-11-05T03:54:14.692Z,9.67
2022-11-05T03:56:36.083Z,9.59
2022-11-05T03:59:00.572Z,9.63
2022-11-05T04:01:22.106Z,9.55
2022-11-05T04:03:43.742Z,9.32
2022-11-05T04:06:26.186Z,9.45
2022-11-05T04:09:06.475Z,9.59
2022-11-05T04:11:46.399Z,9.58
2022-11-05T04:14:07.911Z,9.68
2022-11-05T04:16:48.082Z,9.64
2022-11-05T04:19:09.553Z,9.61
2022-11-05T04:21:49.486Z,9.66
2022-11-05T04:24:11.063Z,9.68
2022-11-05T04:26:32.533Z,9.67
2022-11-05T04:29:12.570Z,9.61
2022-11-05T04:31:34.067Z,9.71
2022-11-05T04:33:55.539Z,9.65
2022-11-05T04:36:17.007Z,9.69
2022-11-05T04:38:38.494Z,9.78
2022-11-05T04:41:16.928Z,9.79
2022-11-05T04:43:38.444Z,9.77
2022-11-05T04:45:59.899Z,9.93
2022-11-05T04:48:21.387Z,10.05
2022-11-05T04:50:42.839Z,9.93
2022-11-05T04:53:04.328Z,9.83
2022-11-05T04:55:26.471Z,9.88
2022-11-05T04:57:52.061Z,9.77
2022-11-05T05:00:13.985Z,9.74
2022-11-05T05:02:36.083Z,9.77
2022-11-05T05:04:57.588Z,9.89
2022-11-05T05:07:19.077Z,9.91
2022-11-05T05:09:40.573Z,9.91
2022-11-05T05:12:02.615Z,10.00
2022-11-05T05:14:24.161Z,9.94
2022-11-05T05:16:45.613Z,10.03
2022-11-05T05:19:07.099Z,10.08
2022-11-05T05:21:40.908Z,10.10
2022-11-05T05:24:03.713Z,10.15
2022-11-05T05:26:25.405Z,10.24
2022-11-05T05:28:46.893Z,10.23
2022-11-05T05:31:09.179Z,10.22
2022-11-05T05:33:30.713Z,10.29
2022-11-05T05:35:52.162Z,10.34
2022-11-05T05:38:13.628Z,10.30
2022-11-05T05:40:35.584Z,10.34
2022-11-05T05:42:57.061Z,10.30
2022-11-05T05:45:18.551Z,10.32
2022-11-05T05:47:40.043Z,10.34
2022-11-05T05:50:01.506Z,10.37
2022-11-05T05:52:22.968Z,10.44
2022-11-05T05:54:44.466Z,10.46
2022-11-05T05:57:05.947Z,10.47
2022-11-05T05:59:27.429Z,10.50
2022-11-05T06:01:48.982Z,10.45
2022-11-05T06:04:10.771Z,10.40
2022-11-05T06:06:32.464Z,10.34
2022-11-05T06:08:55.657Z,10.32
2022-11-05T06:11:17.162Z,10.11
2022-11-05T06:13:38.700Z,10.14
2022-11-05T06:16:06.140Z,10.15
2022-11-05T06:18:27.836Z,10.14
2022-11-05T06:20:49.289Z,10.21
2022-11-05T06:23:11.131Z,10.23
2022-11-05T06:25:34.955Z,10.17
2022-11-05T06:28:00.079Z,10.22
2022-11-05T06:30:23.495Z,10.12
2022-11-05T06:32:45.022Z,10.08
2022-11-05T06:35:06.651Z,10.10
2022-11-05T06:37:28.239Z,10.13
2022-11-05T06:39:49.738Z,10.16
2022-11-05T06:42:18.286Z,10.19
2022-11-05T06:44:40.623Z,10.24
2022-11-05T06:47:02.079Z,10.26
2022-11-05T06:49:24.781Z,10.18
2022-11-05T06:51:46.228Z,10.22
2022-11-05T06:54:08.779Z,10.22
2022-11-05T06:56:30.490Z,10.22
2022-11-05T06:58:52.003Z,10.15
2022-11-05T07:01:13.588Z,10.19
2022-11-05T07:03:36.525Z,10.25
2022-11-05T07:06:02.124Z,10.24
2022-11-05T07:08:24.310Z,10.33
2022-11-05T07:10:45.823Z,10.36
2022-11-05T07:13:08.735Z,10.17
2022-11-05T07:15:30.540Z,10.17
2022-11-05T07:17:57.655Z,10.28
2022-11-05T07:20:19.119Z,10.28
2022-11-05T07:22:40.616Z,10.22
2022-11-05T07:25:02.206Z,10.41
2022-11-05T07:27:23.752Z,10.48
2022-11-05T07:29:45.218Z,10.40
2022-11-05T07:32:06.787Z,10.14
2022-11-05T07:34:28.232Z,10.31
2022-11-05T07:36:49.793Z,10.44
2022-11-05T07:39:11.268Z,10.61
2022-11-05T07:41:32.750Z,10.72
2022-11-05T07:43:54.235Z,10.86
2022-11-05T07:46:15.769Z,10.97
2022-11-05T07:48:37.378Z,11.11
2022-11-05T07:50:58.895Z,11.29
2022-11-05T07:53:23.196Z,11.40
2022-11-05T07:55:46.022Z,11.52
2022-11-05T07:58:07.776Z,11.76
2022-11-05T08:00:30.186Z,11.91
2022-11-05T08:03:08.133Z,11.95
2022-11-05T08:05:31.906Z,11.93
2022-11-05T08:07:55.100Z,11.87
2022-11-05T08:10:16.611Z,12.01
2022-11-05T08:12:38.081Z,11.98
2022-11-05T08:14:59.627Z,11.82
2022-11-05T08:17:21.100Z,11.91
2022-11-05T08:19:42.644Z,11.92
2022-11-05T08:22:04.179Z,12.26
2022-11-05T08:24:25.632Z,12.41
2022-11-05T08:26:47.161Z,12.27
2022-11-05T08:29:08.658Z,12.24
2022-11-05T08:31:31.984Z,12.21
2022-11-05T08:33:57.097Z,12.26
2022-11-05T08:36:21.259Z,12.21
2022-11-05T08:38:42.756Z,12.15
2022-11-05T08:41:06.689Z,12.30
2022-11-05T08:43:28.182Z,12.32
2022-11-05T08:45:50.044Z,12.25
2022-11-05T08:48:17.329Z,12.42
2022-11-05T08:50:39.487Z,12.61
2022-11-05T08:53:01.076Z,12.53
2022-11-05T08:55:22.827Z,12.43
2022-11-05T08:57:46.146Z,12.36
2022-11-05T09:00:08.562Z,12.41
2022-11-05T09:02:30.165Z,12.31
2022-11-05T09:04:51.633Z,12.32
2022-11-05T09:07:13.121Z,12.45
2022-11-05T09:09:34.568Z,12.54
2022-11-05T09:12:11.836Z,12.41
2022-11-05T09:14:34.010Z,12.43
2022-11-05T09:16:55.532Z,12.45
2022-11-05T09:19:17.078Z,12.46
2022-11-05T09:21:38.584Z,12.37
2022-11-05T09:24:00.531Z,12.20
2022-11-05T09:26:22.096Z,12.23
2022-11-05T09:28:43.673Z,12.10
2022-11-05T09:31:07.667Z,11.98
2022-11-05T09:33:29.208Z,11.93
2022-11-05T09:35:51.856Z,11.92
2022-11-05T09:38:13.823Z,11.80
2022-11-05T09:40:52.852Z,11.79
2022-11-05T09:43:20.415Z,11.86
2022-11-05T09:45:42.776Z,12.05
2022-11-05T09:48:12.574Z,12.67
2022-11-05T09:50:40.222Z,13.08
2022-11-05T09:53:02.143Z,13.06
2022-11-05T09:55:30.633Z,13.45
2022-11-05T09:57:59.563Z,14.00
2022-11-05T10:00:21.305Z,14.10
2022-11-05T10:02:56.420Z,14.12
2022-11-05T10:05:20.404Z,14.78
2022-11-05T10:08:02.175Z,15.05
2022-11-05T10:10:37.855Z,15.07
2022-11-05T10:13:11.133Z,15.20
2022-11-05T10:15:41.184Z,15.03
2022-11-05T10:18:28.982Z,14.81
2022-11-05T10:20:50.546Z,14.81
2022-11-05T10:23:20.731Z,14.91
2022-11-05T10:25:46.694Z,14.62
2022-11-05T10:28:14.915Z,14.62
2022-11-05T10:30:37.016Z,14.51
2022-11-05T10:33:04.903Z,14.33
2022-11-05T10:35:31.017Z,14.23
2022-11-05T10:37:55.566Z,14.22
2022-11-05T10:40:45.203Z,14.19
2022-11-05T10:43:37.484Z,14.24
2022-11-05T10:46:21.989Z,14.13
2022-11-05T10:48:53.444Z,14.21
2022-11-05T10:51:15.202Z,14.22
2022-11-05T10:53:41.172Z,14.30
2022-11-05T10:56:03.372Z,14.25
2022-11-05T10:58:33.030Z,14.15
2022-11-05T11:00:54.539Z,14.14
2022-11-05T11:03:37.834Z,14.29
2022-11-05T11:06:01.152Z,14.14
2022-11-05T11:08:24.218Z,14.17
2022-11-05T11:10:54.735Z,14.11
2022-11-05T11:13:21.522Z,13.92
2022-11-05T11:15:43.058Z,13.86
2022-11-05T11:18:29.183Z,13.82
2022-11-05T11:20:50.714Z,13.37
2022-11-05T11:23:16.250Z,13.35
2022-11-05T11:25:50.465Z,13.17
2022-11-05T11:28:18.694Z,13.09
2022-11-05T11:30:48.073Z,12.82
2022-11-05T11:33:12.622Z,12.69
2022-11-05T11:35:38.156Z,12.61
2022-11-05T11:38:02.094Z,12.64
2022-11-05T11:40:30.169Z,12.69
2022-11-05T11:42:54.758Z,12.74
2022-11-05T11:45:31.717Z,12.76
2022-11-05T11:47:56.505Z,13.00
2022-11-05T11:50:32.306Z,13.12
2022-11-05T11:52:53.754Z,13.27
2022-11-05T11:55:15.213Z,13.22
2022-11-05T11:57:47.954Z,13.10
2022-11-05T12:00:10.318Z,13.16
2022-11-05T12:02:40.663Z,13.20
2022-11-05T12:05:31.421Z,13.28
2022-11-05T12:07:58.035Z,13.28
2022-11-05T12:10:34.485Z,13.22
2022-11-05T12:13:20.615Z,13.13
2022-11-05T12:15:57.648Z,13.29
2022-11-05T12:18:45.163Z,13.01
2022-11-05T12:21:15.365Z,12.87
2022-11-05T12:23:54.158Z,12.62
2022-11-05T12:26:18.229Z,12.49
2022-11-05T12:29:17.782Z,12.57
2022-11-05T12:32:21.556Z,12.23
2022-11-05T12:34:57.936Z,12.23
2022-11-05T12:38:27.485Z,12.14
2022-11-05T12:41:00.359Z,12.23
2022-11-05T12:43:32.043Z,12.19
2022-11-05T12:46:14.632Z,12.20
2022-11-05T12:48:57.291Z,12.28
2022-11-05T12:51:55.661Z,12.35
2022-11-05T12:54:39.671Z,12.36
2022-11-05T12:57:03.766Z,12.35
2022-11-05T12:59:34.770Z,12.35
2022-11-05T13:02:10.734Z,12.34
2022-11-05T13:04:46.403Z,12.43
2022-11-05T13:07:11.698Z,12.39
2022-11-05T13:10:04.033Z,12.42
2022-11-05T13:12:28.195Z,12.48
2022-11-05T13:15:01.028Z,12.57
2022-11-05T13:17:25.884Z,12.36
2022-11-05T13:19:54.688Z,12.49
2022-11-05T13:22:38.928Z,12.50
2022-11-05T13:25:06.162Z,12.86
2022-11-05T13:27:49.030Z,12.81
2022-11-05T13:30:19.096Z,12.67
2022-11-05T13:32:45.459Z,12.60
2022-11-05T13:35:17.033Z,12.64
2022-11-05T13:38:02.055Z,12.52
2022-11-05T13:40:39.125Z,12.50
2022-11-05T13:43:03.626Z,12.45
2022-11-05T13:45:54.213Z,12.47
2022-11-05T13:48:34.813Z,12.51
2022-11-05T13:51:17.643Z,12.53
2022-11-05T13:54:15.061Z,12.54
2022-11-05T13:56:45.400Z,12.51
2022-11-05T13:59:39.280Z,12.49
2022-11-05T14:02:04.402Z,12.36
2022-11-05T14:04:32.454Z,12.40
2022-11-05T14:06:55.415Z,12.46
2022-11-05T14:09:24.287Z,12.52
2022-11-05T14:11:53.798Z,12.54
2022-11-05T14:14:19.971Z,12.48
2022-11-05T14:17:09.434Z,12.29
2022-11-05T14:19:48.744Z,12.21
2022-11-05T14:22:37.708Z,12.23
2022-11-05T14:25:19.106Z,12.22
2022-11-05T14:27:43.880Z,12.26
2022-11-05T14:30:41.307Z,12.15
2022-11-05T14:33:04.842Z,12.21
2022-11-05T14:35:37.469Z,12.29
2022-11-05T14:38:00.051Z,12.35
2022-11-05T14:40:21.526Z,12.24
2022-11-05T14:43:00.712Z,12.25
2022-11-05T14:45:37.111Z,12.25
2022-11-05T14:48:35.547Z,12.14
2022-11-05T14:50:57.033Z,12.15
2022-11-05T14:53:39.582Z,12.10
2022-11-05T14:56:03.295Z,12.12
2022-11-05T14:58:35.410Z,12.13
2022-11-05T15:00:57.932Z,12.13
2022-11-05T15:03:28.748Z,12.11
2022-11-05T15:05:51.797Z,12.31
2022-11-05T15:08:50.223Z,12.45
2022-11-05T15:11:18.486Z,12.61
2022-11-05T15:13:55.113Z,12.72
2022-11-05T15:16:24.382Z,12.74
2022-11-05T15:18:47.303Z,12.61
2022-11-05T15:21:15.166Z,12.61
2022-11-05T15:23:42.090Z,12.71
2022-11-05T15:26:12.354Z,12.70
2022-11-05T15:28:46.352Z,12.68
2022-11-05T15:31:13.634Z,12.71
2022-11-05T15:33:35.202Z,12.61
2022-11-05T15:36:27.985Z,12.42
2022-11-05T15:39:15.499Z,12.32
2022-11-05T15:41:35.015Z,12.27
2022-11-05T15:43:56.612Z,12.16
2022-11-05T15:46:28.301Z,11.97
2022-11-05T15:48:52.834Z,11.89
2022-11-05T15:51:14.375Z,11.81
2022-11-05T15:54:16.057Z,11.47
2022-11-05T15:56:58.485Z,11.39
2022-11-05T15:59:23.197Z,11.39
2022-11-05T16:02:01.047Z,11.28
2022-11-05T16:04:25.955Z,11.18
2022-11-05T16:06:52.344Z,11.19
2022-11-05T16:09:22.927Z,11.09
2022-11-05T16:11:44.395Z,11.01
2022-11-05T16:14:20.155Z,11.02
2022-11-05T16:16:42.294Z,10.89
2022-11-05T16:19:40.203Z,10.64
2022-11-05T16:22:04.391Z,10.75
2022-11-05T16:24:29.320Z,10.65
2022-11-05T16:27:03.471Z,10.54
2022-11-05T16:29:32.336Z,10.53
2022-11-05T16:31:55.521Z,10.41
2022-11-05T16:34:27.950Z,10.43
2022-11-05T16:36:49.443Z,10.50
2022-11-05T16:39:10.880Z,10.44
2022-11-05T16:41:32.393Z,10.52
2022-11-05T16:43:59.204Z,10.54
2022-11-05T16:46:22.655Z,10.54
2022-11-05T16:48:44.282Z,10.36
2022-11-05T16:51:05.931Z,10.15
2022-11-05T16:53:27.383Z,10.19
2022-11-05T16:55:49.492Z,10.18
2022-11-05T16:58:20.581Z,10.27
2022-11-05T17:00:42.110Z,10.26
2022-11-05T17:03:04.170Z,10.36
2022-11-05T17:05:31.008Z,10.32
2022-11-05T17:07:53.218Z,10.28
2022-11-05T17:10:14.885Z,9.95
2022-11-05T17:12:36.387Z,10.02
2022-11-05T17:14:57.903Z,10.05
2022-11-05T17:17:19.373Z,10.04
2022-11-05T17:19:42.533Z,10.08
2022-11-05T17:22:04.207Z,10.10
2022-11-05T17:24:25.656Z,9.92
2022-11-05T17:26:47.317Z,9.98
2022-11-05T17:29:09.015Z,9.87
2022-11-05T17:31:30.548Z,9.76
2022-11-05T17:33:56.713Z,9.86
2022-11-05T17:36:18.226Z,9.75
2022-11-05T17:38:40.167Z,9.61
2022-11-05T17:41:01.871Z,9.67
2022-11-05T17:43:23.525Z,9.79
2022-11-05T17:45:48.057Z,9.87
2022-11-05T17:48:10.505Z,9.81
2022-11-05T17:50:32.098Z,9.65
2022-11-05T17:52:53.629Z,9.66
2022-11-05T17:55:18.056Z,9.65
2022-11-05T17:57:39.515Z,9.51
2022-11-05T18:00:00.989Z,9.62
2022-11-05T18:02:22.745Z,9.58
2022-11-05T18:04:44.631Z,9.60
2022-11-05T18:07:06.634Z,9.60
2022-11-05T18:09:28.221Z,9.67
2022-11-05T18:11:49.779Z,9.60
2022-11-05T18:14:11.419Z,9.67
2022-11-05T18:16:34.286Z,9.58
2022-11-05T18:18:56.304Z,9.55
2022-11-05T18:21:17.864Z,9.57
2022-11-05T18:23:39.326Z,9.52
2022-11-05T18:26:00.863Z,9.58
2022-11-05T18:28:22.349Z,9.60
2022-11-05T18:30:43.850Z,9.41
2022-11-05T18:33:05.491Z,9.52
2022-11-05T18:35:26.984Z,9.54
2022-11-05T18:37:48.457Z,9.44
2022-11-05T18:40:10.828Z,9.31
2022-11-05T18:42:32.426Z,9.27
2022-11-05T18:44:53.931Z,9.24
2022-11-05T18:47:15.460Z,9.22
2022-11-05T18:49:37.122Z,9.37
2022-11-05T18:51:58.609Z,9.47
2022-11-05T18:54:20.635Z,9.54
2022-11-05T18:56:45.513Z,9.54
2022-11-05T18:59:35.117Z,9.58
2022-11-05T19:01:48.790Z,9.63
2022-11-05T19:04:10.421Z,9.68
2022-11-05T19:06:32.222Z,9.67
2022-11-05T19:08:56.273Z,9.64
2022-11-05T19:11:24.601Z,9.68
2022-11-05T19:13:46.375Z,9.64
2022-11-05T19:16:14.338Z,9.64
2022-11-05T19:18:36.901Z,9.66
2022-11-05T19:20:58.366Z,9.69
2022-11-05T19:23:19.825Z,9.64
2022-11-05T19:25:41.334Z,9.60
2022-11-05T19:28:03.039Z,9.61
2022-11-05T19:30:25.669Z,9.46
2022-11-05T19:32:47.166Z,9.52
2022-11-05T19:35:08.857Z,9.52
2022-11-05T19:37:30.322Z,9.49
2022-11-05T19:39:52.091Z,9.53
2022-11-05T19:42:13.696Z,9.61
2022-11-05T19:44:35.287Z,9.34
2022-11-05T19:46:56.738Z,9.47
2022-11-05T19:49:19.343Z,9.37
2022-11-05T19:51:40.850Z,9.22
2022-11-05T19:54:03.681Z,9.29
2022-11-05T19:56:30.463Z,9.23
2022-11-05T19:58:53.216Z,9.39
2022-11-05T20:01:16.545Z,9.04
2022-11-05T20:03:38.641Z,9.03
2022-11-05T20:06:09.295Z,9.17
2022-11-05T20:08:30.780Z,9.12
2022-11-05T20:10:55.724Z,9.13
2022-11-05T20:13:19.926Z,9.08
2022-11-05T20:15:41.757Z,8.92
2022-11-05T20:18:03.236Z,8.84
2022-11-05T20:20:24.743Z,8.85
2022-11-05T20:22:46.218Z,8.87
2022-11-05T20:25:08.213Z,8.86
2022-11-05T20:27:29.652Z,8.71
2022-11-05T20:29:51.147Z,8.79
2022-11-05T20:32:12.754Z,8.71
2022-11-05T20:34:35.051Z,8.76
2022-11-05T20:36:56.587Z,8.86
2022-11-05T20:39:18.301Z,8.95
2022-11-05T20:41:39.838Z,8.87
2022-11-05T20:44:01.471Z,8.74
2022-11-05T20:46:23.813Z,8.65
2022-11-05T20:48:45.867Z,8.58
2022-11-05T20:51:10.163Z,8.56
2022-11-05T20:53:31.669Z,8.62
2022-11-05T20:55:53.175Z,8.65
2022-11-05T20:58:16.181Z,8.53
2022-11-05T21:00:38.324Z,8.73
2022-11-05T21:02:59.801Z,8.70
2022-11-05T21:05:21.700Z,8.71
2022-11-05T21:07:43.140Z,8.75
2022-11-05T21:10:06.523Z,8.68
2022-11-05T21:12:28.017Z,8.81
2022-11-05T21:14:51.032Z,8.62
2022-11-05T21:17:13.583Z,8.92
2022-11-05T21:19:36.108Z,8.78
2022-11-05T21:21:57.648Z,8.75
2022-11-05T21:24:19.150Z,8.79
2022-11-05T21:26:40.779Z,8.96
2022-11-05T21:29:02.267Z,9.11
2022-11-05T21:31:23.749Z,9.22
2022-11-05T21:33:45.214Z,9.28
2022-11-05T21:36:11.916Z,9.34
2022-11-05T21:38:33.388Z,9.54
2022-11-05T21:40:54.882Z,9.57
2022-11-05T21:43:16.996Z,9.49
2022-11-05T21:45:39.907Z,9.33
2022-11-05T21:48:01.402Z,9.42
2022-11-05T21:50:43.463Z,9.40
2022-11-05T21:53:34.078Z,9.47
2022-11-05T21:56:13.963Z,9.41
2022-11-05T21:58:56.196Z,9.44
2022-11-05T22:01:18.044Z,9.49
2022-11-05T22:03:39.740Z,9.51
2022-11-05T22:06:01.255Z,9.54
2022-11-05T22:08:22.848Z,9.54
2022-11-05T22:10:44.417Z,9.52
2022-11-05T22:13:05.902Z,9.62
2022-11-05T22:15:27.389Z,9.63
2022-11-05T22:17:50.742Z,9.55
2022-11-05T22:20:12.246Z,9.59
2022-11-05T22:22:34.449Z,9.64
2022-11-05T22:24:55.978Z,9.48
2022-11-05T22:27:20.550Z,9.48
2022-11-05T22:29:43.050Z,9.15
2022-11-05T22:32:05.457Z,8.77
2022-11-05T22:34:27.347Z,8.42
2022-11-05T22:36:48.949Z,8.39
2022-11-05T22:39:11.957Z,8.34
2022-11-05T22:41:33.825Z,8.32
2022-11-05T22:43:55.874Z,8.10
2022-11-05T22:46:22.860Z,7.88
2022-11-05T22:48:44.946Z,7.79
2022-11-05T22:51:08.539Z,7.75
2022-11-05T22:53:30.522Z,7.75
2022-11-05T22:55:51.972Z,7.78
2022-11-05T22:58:13.807Z,7.73
2022-11-05T23:00:37.175Z,7.71
2022-11-05T23:02:58.997Z,7.58
2022-11-05T23:05:20.672Z,7.60
2022-11-05T23:08:00.809Z,7.56
2022-11-05T23:10:40.789Z,7.70
2022-11-05T23:13:02.514Z,7.81
2022-11-05T23:15:42.478Z,7.78
2022-11-05T23:18:22.971Z,7.78
2022-11-05T23:21:03.110Z,7.69
2022-11-05T23:23:42.940Z,7.67
2022-11-05T23:26:24.446Z,7.82
2022-11-05T23:28:45.926Z,7.80
2022-11-05T23:31:27.666Z,7.95
2022-11-05T23:33:49.147Z,8.08
2022-11-05T23:36:31.543Z,7.84
2022-11-05T23:38:53.163Z,7.70
2022-11-05T23:41:33.244Z,7.90
2022-11-05T23:44:13.015Z,7.76
2022-11-05T23:46:53.187Z,7.87
2022-11-05T23:49:14.762Z,8.00
2022-11-05T23:51:36.218Z,7.96
2022-11-05T23:53:57.782Z,7.92
2022-11-05T23:56:19.374Z,8.09
2022-11-05T23:58:42.336Z,7.98
